sensor_id;sensor_type;location;lat;lon;timestamp;pressure;altitude;pressure_sealevel;temperature;humidity
32452;BME280;45528;52.102;5.242;2023-05-02T00:00:55;101637.0;;;16.73;61.73
32452;BME280;45528;52.102;5.242;2023-05-02T00:02:31;101627.0;;;16.75;61.95
32452;BME280;45528;52.102;5.242;2023-05-02T00:04:08;101634.0;;;16.95;61.35
32452;BME280;45528;52.102;5.242;2023-05-02T00:07:20;101631.0;;;16.87;61.63
32452;BME280;45528;52.102;5.242;2023-05-02T00:08:57;101630.0;;;17.0;61.16
32452;BME280;45528;52.102;5.242;2023-05-02T00:10:33;101633.0;;;16.82;61.51
32452;BME280;45528;52.102;5.242;2023-05-02T00:12:09;101634.0;;;16.77;61.79
32452;BME280;45528;52.102;5.242;2023-05-02T00:15:21;101630.0;;;16.52;62.12
32452;BME280;45528;52.102;5.242;2023-05-02T00:16:57;101631.0;;;16.95;61.4
32452;BME280;45528;52.102;5.242;2023-05-02T00:18:34;101626.0;;;16.95;61.53
32452;BME280;45528;52.102;5.242;2023-05-02T00:21:47;101625.0;;;16.89;61.63
32452;BME280;45528;52.102;5.242;2023-05-02T00:23:23;101628.0;;;16.9;61.49
32452;BME280;45528;52.102;5.242;2023-05-02T00:24:59;101633.0;;;16.91;61.71
32452;BME280;45528;52.102;5.242;2023-05-02T00:28:13;101632.0;;;16.88;61.63
32452;BME280;45528;52.102;5.242;2023-05-02T00:29:49;101637.0;;;16.88;61.88
32452;BME280;45528;52.102;5.242;2023-05-02T00:31:25;101637.0;;;16.9;61.86
32452;BME280;45528;52.102;5.242;2023-05-02T00:34:37;101637.0;;;16.95;61.63
32452;BME280;45528;52.102;5.242;2023-05-02T00:36:14;101638.0;;;16.9;61.79
32452;BME280;45528;52.102;5.242;2023-05-02T00:37:51;101640.0;;;16.88;61.79
32452;BME280;45528;52.102;5.242;2023-05-02T00:39:27;101639.0;;;16.97;61.68
32452;BME280;45528;52.102;5.242;2023-05-02T00:42:39;101636.0;;;16.72;61.83
32452;BME280;45528;52.102;5.242;2023-05-02T00:44:15;101633.0;;;16.7;62.06
32452;BME280;45528;52.102;5.242;2023-05-02T00:45:51;101636.0;;;16.95;61.23
32452;BME280;45528;52.102;5.242;2023-05-02T00:49:04;101635.0;;;16.95;61.11
32452;BME280;45528;52.102;5.242;2023-05-02T00:50:41;101640.0;;;17.04;60.79
32452;BME280;45528;52.102;5.242;2023-05-02T00:52:18;101644.0;;;16.63;61.93
32452;BME280;45528;52.102;5.242;2023-05-02T00:55:31;101649.0;;;16.73;61.6
32452;BME280;45528;52.102;5.242;2023-05-02T00:57:07;101650.0;;;16.82;61.61
32452;BME280;45528;52.102;5.242;2023-05-02T00:58:44;101655.0;;;16.88;61.4
32452;BME280;45528;52.102;5.242;2023-05-02T01:00:26;101660.0;;;16.81;61.26
32452;BME280;45528;52.102;5.242;2023-05-02T01:04:13;101659.0;;;17.0;61.16
32452;BME280;45528;52.102;5.242;2023-05-02T01:06:04;101660.0;;;16.95;61.39
32452;BME280;45528;52.102;5.242;2023-05-02T01:08:05;101655.0;;;17.07;60.92
32452;BME280;45528;52.102;5.242;2023-05-02T01:09:55;101656.0;;;17.04;61.17
32452;BME280;45528;52.102;5.242;2023-05-02T01:11:43;101653.0;;;16.65;62.11
32452;BME280;45528;52.102;5.242;2023-05-02T01:13:32;101661.0;;;17.02;61.28
32452;BME280;45528;52.102;5.242;2023-05-02T01:15:13;101659.0;;;17.05;61.26
32452;BME280;45528;52.102;5.242;2023-05-02T01:18:31;101659.0;;;17.12;61.1
32452;BME280;45528;52.102;5.242;2023-05-02T01:20:13;101663.0;;;16.9;61.72
32452;BME280;45528;52.102;5.242;2023-05-02T01:21:52;101672.0;;;17.09;61.32
32452;BME280;45528;52.102;5.242;2023-05-02T01:23:37;101666.0;;;16.75;61.6
32452;BME280;45528;52.102;5.242;2023-05-02T01:27:12;101671.0;;;16.88;61.59
32452;BME280;45528;52.102;5.242;2023-05-02T01:28:56;101676.0;;;16.64;61.81
32452;BME280;45528;52.102;5.242;2023-05-02T01:30:35;101678.0;;;16.8;61.43
32452;BME280;45528;52.102;5.242;2023-05-02T01:32:14;101677.0;;;16.43;62.45
32452;BME280;45528;52.102;5.242;2023-05-02T01:33:51;101675.0;;;16.0;63.23
32452;BME280;45528;52.102;5.242;2023-05-02T01:37:09;101678.0;;;16.06;62.85
32452;BME280;45528;52.102;5.242;2023-05-02T01:38:48;101688.0;;;15.99;62.86
32452;BME280;45528;52.102;5.242;2023-05-02T01:40:25;101685.0;;;15.79;62.72
32452;BME280;45528;52.102;5.242;2023-05-02T01:43:41;101688.0;;;15.95;62.13
32452;BME280;45528;52.102;5.242;2023-05-02T01:45:18;101702.0;;;16.18;61.21
32452;BME280;45528;52.102;5.242;2023-05-02T01:46:56;101702.0;;;16.3;60.95
32452;BME280;45528;52.102;5.242;2023-05-02T01:48:35;101707.0;;;16.09;61.21
32452;BME280;45528;52.102;5.242;2023-05-02T01:51:53;101711.0;;;16.25;60.84
32452;BME280;45528;52.102;5.242;2023-05-02T01:53:32;101710.0;;;16.36;60.54
32452;BME280;45528;52.102;5.242;2023-05-02T01:55:12;101712.0;;;16.18;60.72
32452;BME280;45528;52.102;5.242;2023-05-02T01:56:50;101710.0;;;16.03;61.0
32452;BME280;45528;52.102;5.242;2023-05-02T02:00:07;101711.0;;;15.93;61.19
32452;BME280;45528;52.102;5.242;2023-05-02T02:01:47;101709.0;;;16.31;59.97
32452;BME280;45528;52.102;5.242;2023-05-02T02:03:25;101713.0;;;16.14;60.13
32452;BME280;45528;52.102;5.242;2023-05-02T02:06:57;101712.0;;;16.39;59.61
32452;BME280;45528;52.102;5.242;2023-05-02T02:08:34;101714.0;;;16.18;59.45
32452;BME280;45528;52.102;5.242;2023-05-02T02:10:10;101715.0;;;16.18;59.31
32452;BME280;45528;52.102;5.242;2023-05-02T02:11:49;101723.0;;;16.09;59.4
32452;BME280;45528;52.102;5.242;2023-05-02T02:15:17;101726.0;;;16.27;58.76
32452;BME280;45528;52.102;5.242;2023-05-02T02:16:58;101733.0;;;16.09;59.04
32452;BME280;45528;52.102;5.242;2023-05-02T02:18:38;101737.0;;;16.14;58.37
32452;BME280;45528;52.102;5.242;2023-05-02T02:20:14;101744.0;;;16.14;58.08
32452;BME280;45528;52.102;5.242;2023-05-02T02:23:32;101741.0;;;16.06;58.06
32452;BME280;45528;52.102;5.242;2023-05-02T02:25:11;101749.0;;;15.67;58.61
32452;BME280;45528;52.102;5.242;2023-05-02T02:26:49;101752.0;;;15.85;57.88
32452;BME280;45528;52.102;5.242;2023-05-02T02:28:26;101756.0;;;15.95;57.49
32452;BME280;45528;52.102;5.242;2023-05-02T02:31:39;101758.0;;;15.96;57.5
32452;BME280;45528;52.102;5.242;2023-05-02T02:33:16;101750.0;;;15.87;57.33
32452;BME280;45528;52.102;5.242;2023-05-02T02:34:52;101771.0;;;15.58;57.46
32452;BME280;45528;52.102;5.242;2023-05-02T02:38:15;101772.0;;;15.52;57.35
32452;BME280;45528;52.102;5.242;2023-05-02T02:40:04;101773.0;;;15.75;56.68
32452;BME280;45528;52.102;5.242;2023-05-02T02:41:49;101762.0;;;15.73;56.34
32452;BME280;45528;52.102;5.242;2023-05-02T02:43:35;101763.0;;;15.51;56.68
32452;BME280;45528;52.102;5.242;2023-05-02T02:45:25;101764.0;;;15.82;56.1
32452;BME280;45528;52.102;5.242;2023-05-02T02:47:07;101774.0;;;15.44;56.99
32452;BME280;45528;52.102;5.242;2023-05-02T02:50:58;101769.0;;;15.27;56.67
32452;BME280;45528;52.102;5.242;2023-05-02T02:52:47;101776.0;;;15.48;56.45
32452;BME280;45528;52.102;5.242;2023-05-02T02:54:32;101780.0;;;15.63;55.89
32452;BME280;45528;52.102;5.242;2023-05-02T02:56:14;101778.0;;;15.58;56.14
32452;BME280;45528;52.102;5.242;2023-05-02T02:57:58;101780.0;;;15.6;56.36
32452;BME280;45528;52.102;5.242;2023-05-02T02:59:39;101776.0;;;15.65;56.04
32452;BME280;45528;52.102;5.242;2023-05-02T03:03:01;101786.0;;;15.67;56.16
32452;BME280;45528;52.102;5.242;2023-05-02T03:04:39;101785.0;;;15.57;56.57
32452;BME280;45528;52.102;5.242;2023-05-02T03:06:17;101783.0;;;15.73;56.07
32452;BME280;45528;52.102;5.242;2023-05-02T03:09:39;101793.0;;;15.63;56.22
32452;BME280;45528;52.102;5.242;2023-05-02T03:11:15;101796.0;;;15.73;55.91
32452;BME280;45528;52.102;5.242;2023-05-02T03:12:51;101798.0;;;15.5;56.66
32452;BME280;45528;52.102;5.242;2023-05-02T03:14:27;101801.0;;;15.79;55.97
32452;BME280;45528;52.102;5.242;2023-05-02T03:18:23;101805.0;;;15.78;56.01
32452;BME280;45528;52.102;5.242;2023-05-02T03:21:35;101806.0;;;15.62;56.26
32452;BME280;45528;52.102;5.242;2023-05-02T03:23:11;101806.0;;;15.68;56.09
32452;BME280;45528;52.102;5.242;2023-05-02T03:24:47;101809.0;;;15.56;56.63
32452;BME280;45528;52.102;5.242;2023-05-02T03:28:00;101810.0;;;15.67;56.36
32452;BME280;45528;52.102;5.242;2023-05-02T03:29:36;101816.0;;;15.78;55.92
32452;BME280;45528;52.102;5.242;2023-05-02T03:31:12;101819.0;;;15.72;56.0
32452;BME280;45528;52.102;5.242;2023-05-02T03:34:26;101821.0;;;15.88;55.63
32452;BME280;45528;52.102;5.242;2023-05-02T03:36:03;101823.0;;;15.76;56.08
32452;BME280;45528;52.102;5.242;2023-05-02T03:37:39;101830.0;;;15.59;56.37
32452;BME280;45528;52.102;5.242;2023-05-02T03:40:51;101833.0;;;15.53;56.36
32452;BME280;45528;52.102;5.242;2023-05-02T03:42:27;101837.0;;;15.5;56.19
32452;BME280;45528;52.102;5.242;2023-05-02T03:44:03;101839.0;;;15.56;55.9
32452;BME280;45528;52.102;5.242;2023-05-02T03:45:40;101837.0;;;15.4;56.23
32452;BME280;45528;52.102;5.242;2023-05-02T03:48:52;101840.0;;;15.62;55.48
32452;BME280;45528;52.102;5.242;2023-05-02T03:50:28;101835.0;;;15.31;55.74
32452;BME280;45528;52.102;5.242;2023-05-02T03:52:04;101838.0;;;15.68;54.8
32452;BME280;45528;52.102;5.242;2023-05-02T03:55:17;101841.0;;;15.59;54.79
32452;BME280;45528;52.102;5.242;2023-05-02T03:56:53;101838.0;;;15.59;54.68
32452;BME280;45528;52.102;5.242;2023-05-02T03:58:29;101837.0;;;15.2;55.34
32452;BME280;45528;52.102;5.242;2023-05-02T04:01:43;101838.0;;;15.44;55.31
32452;BME280;45528;52.102;5.242;2023-05-02T04:03:20;101839.0;;;15.22;54.92
32452;BME280;45528;52.102;5.242;2023-05-02T04:04:57;101844.0;;;15.26;55.31
32452;BME280;45528;52.102;5.242;2023-05-02T04:06:33;101846.0;;;15.31;54.37
32452;BME280;45528;52.102;5.242;2023-05-02T04:09:44;101846.0;;;15.14;54.59
32452;BME280;45528;52.102;5.242;2023-05-02T04:11:21;101855.0;;;15.11;54.23
32452;BME280;45528;52.102;5.242;2023-05-02T04:12:57;101851.0;;;15.25;54.09
32452;BME280;45528;52.102;5.242;2023-05-02T04:16:09;101860.0;;;15.27;54.04
32452;BME280;45528;52.102;5.242;2023-05-02T04:17:45;101862.0;;;15.18;54.3
32452;BME280;45528;52.102;5.242;2023-05-02T04:19:22;101850.0;;;15.0;55.33
32452;BME280;45528;52.102;5.242;2023-05-02T04:22:34;101858.0;;;15.16;54.59
32452;BME280;45528;52.102;5.242;2023-05-02T04:24:10;101859.0;;;15.12;54.91
32452;BME280;45528;52.102;5.242;2023-05-02T04:25:51;101863.0;;;15.24;54.83
32452;BME280;45528;52.102;5.242;2023-05-02T04:27:27;101871.0;;;14.92;55.17
32452;BME280;45528;52.102;5.242;2023-05-02T04:30:40;101877.0;;;15.0;55.17
32452;BME280;45528;52.102;5.242;2023-05-02T04:32:16;101880.0;;;15.15;54.68
32452;BME280;45528;52.102;5.242;2023-05-02T04:33:52;101885.0;;;15.21;54.68
32452;BME280;45528;52.102;5.242;2023-05-02T04:37:05;101891.0;;;15.07;55.06
32452;BME280;45528;52.102;5.242;2023-05-02T04:38:41;101889.0;;;15.23;54.86
32452;BME280;45528;52.102;5.242;2023-05-02T04:40:17;101900.0;;;15.09;55.21
32452;BME280;45528;52.102;5.242;2023-05-02T04:43:29;101907.0;;;15.13;55.37
32452;BME280;45528;52.102;5.242;2023-05-02T04:45:07;101900.0;;;15.03;56.17
32452;BME280;45528;52.102;5.242;2023-05-02T04:46:43;101908.0;;;15.02;55.67
32452;BME280;45528;52.102;5.242;2023-05-02T04:49:55;101908.0;;;14.63;57.32
32452;BME280;45528;52.102;5.242;2023-05-02T04:51:31;101911.0;;;15.21;56.06
32452;BME280;45528;52.102;5.242;2023-05-02T04:53:07;101915.0;;;15.22;55.83
32452;BME280;45528;52.102;5.242;2023-05-02T04:54:43;101913.0;;;15.18;55.98
32452;BME280;45528;52.102;5.242;2023-05-02T04:57:56;101921.0;;;15.33;55.44
32452;BME280;45528;52.102;5.242;2023-05-02T04:59:33;101922.0;;;15.45;55.04
32452;BME280;45528;52.102;5.242;2023-05-02T05:01:11;101925.0;;;15.29;55.56
32452;BME280;45528;52.102;5.242;2023-05-02T05:04:24;101924.0;;;15.17;55.67
32452;BME280;45528;52.102;5.242;2023-05-02T05:06:00;101933.0;;;15.53;55.03
32452;BME280;45528;52.102;5.242;2023-05-02T05:07:37;101935.0;;;15.32;55.01
32452;BME280;45528;52.102;5.242;2023-05-02T05:10:49;101940.0;;;15.63;54.56
32452;BME280;45528;52.102;5.242;2023-05-02T05:12:26;101941.0;;;15.58;54.95
32452;BME280;45528;52.102;5.242;2023-05-02T05:14:02;101945.0;;;15.3;55.41
32452;BME280;45528;52.102;5.242;2023-05-02T05:15:39;101945.0;;;15.54;55.43
32452;BME280;45528;52.102;5.242;2023-05-02T05:18:52;101946.0;;;15.45;55.41
32452;BME280;45528;52.102;5.242;2023-05-02T05:20:28;101941.0;;;15.4;55.41
32452;BME280;45528;52.102;5.242;2023-05-02T05:22:04;101947.0;;;15.53;54.73
32452;BME280;45528;52.102;5.242;2023-05-02T05:25:17;101949.0;;;15.32;54.99
32452;BME280;45528;52.102;5.242;2023-05-02T05:26:53;101958.0;;;15.62;54.83
32452;BME280;45528;52.102;5.242;2023-05-02T05:28:29;101955.0;;;15.45;54.78
32452;BME280;45528;52.102;5.242;2023-05-02T05:31:42;101962.0;;;15.6;54.64
32452;BME280;45528;52.102;5.242;2023-05-02T05:33:18;101964.0;;;15.76;54.32
32452;BME280;45528;52.102;5.242;2023-05-02T05:34:55;101962.0;;;15.62;54.19
32452;BME280;45528;52.102;5.242;2023-05-02T05:36:31;101967.0;;;15.68;53.73
32452;BME280;45528;52.102;5.242;2023-05-02T05:39:43;101968.0;;;15.55;54.09
32452;BME280;45528;52.102;5.242;2023-05-02T05:41:21;101973.0;;;15.37;54.48
32452;BME280;45528;52.102;5.242;2023-05-02T05:42:56;101980.0;;;15.4;53.95
32452;BME280;45528;52.102;5.242;2023-05-02T05:46:09;101983.0;;;15.26;54.2
32452;BME280;45528;52.102;5.242;2023-05-02T05:47:45;101987.0;;;15.16;54.16
32452;BME280;45528;52.102;5.242;2023-05-02T05:49:21;101992.0;;;15.33;54.4
32452;BME280;45528;52.102;5.242;2023-05-02T05:52:38;101998.0;;;14.81;54.42
32452;BME280;45528;52.102;5.242;2023-05-02T05:54:15;102002.0;;;14.81;54.07
32452;BME280;45528;52.102;5.242;2023-05-02T05:55:52;102005.0;;;14.91;54.25
32452;BME280;45528;52.102;5.242;2023-05-02T05:57:28;102007.0;;;15.15;53.54
32452;BME280;45528;52.102;5.242;2023-05-02T06:00:40;102012.0;;;15.05;54.06
32452;BME280;45528;52.102;5.242;2023-05-02T06:02:17;102016.0;;;14.87;53.74
32452;BME280;45528;52.102;5.242;2023-05-02T06:03:53;102018.0;;;15.15;53.45
32452;BME280;45528;52.102;5.242;2023-05-02T06:07:06;102022.0;;;14.95;53.94
32452;BME280;45528;52.102;5.242;2023-05-02T06:08:42;102019.0;;;15.14;53.56
32452;BME280;45528;52.102;5.242;2023-05-02T06:10:18;102025.0;;;15.38;52.91
32452;BME280;45528;52.102;5.242;2023-05-02T06:13:31;102030.0;;;15.53;52.58
32452;BME280;45528;52.102;5.242;2023-05-02T06:15:07;102032.0;;;15.77;52.68
32452;BME280;45528;52.102;5.242;2023-05-02T06:16:43;102039.0;;;15.69;52.03
32452;BME280;45528;52.102;5.242;2023-05-02T06:19:56;102040.0;;;15.87;51.82
32452;BME280;45528;52.102;5.242;2023-05-02T06:21:32;102046.0;;;15.7;51.77
32452;BME280;45528;52.102;5.242;2023-05-02T06:23:08;102053.0;;;15.8;50.5
32452;BME280;45528;52.102;5.242;2023-05-02T06:24:44;102049.0;;;15.68;50.79
32452;BME280;45528;52.102;5.242;2023-05-02T06:27:56;102049.0;;;15.93;50.66
32452;BME280;45528;52.102;5.242;2023-05-02T06:29:33;102055.0;;;15.85;50.34
32452;BME280;45528;52.102;5.242;2023-05-02T06:31:09;102056.0;;;15.76;50.62
32452;BME280;45528;52.102;5.242;2023-05-02T06:34:21;102062.0;;;16.0;49.9
32452;BME280;45528;52.102;5.242;2023-05-02T06:35:57;102059.0;;;16.14;49.87
32452;BME280;45528;52.102;5.242;2023-05-02T06:37:34;102059.0;;;15.96;49.22
32452;BME280;45528;52.102;5.242;2023-05-02T06:40:46;102066.0;;;15.71;49.35
32452;BME280;45528;52.102;5.242;2023-05-02T06:42:23;102064.0;;;16.04;49.3
32452;BME280;45528;52.102;5.242;2023-05-02T06:43:59;102069.0;;;15.52;49.3
32452;BME280;45528;52.102;5.242;2023-05-02T06:45:35;102067.0;;;15.87;49.42
32452;BME280;45528;52.102;5.242;2023-05-02T06:48:47;102080.0;;;15.62;50.07
32452;BME280;45528;52.102;5.242;2023-05-02T06:50:24;102086.0;;;15.71;49.16
32452;BME280;45528;52.102;5.242;2023-05-02T06:52:00;102086.0;;;15.8;48.86
32452;BME280;45528;52.102;5.242;2023-05-02T06:55:12;102095.0;;;15.98;48.26
32452;BME280;45528;52.102;5.242;2023-05-02T06:56:48;102101.0;;;16.25;48.28
32452;BME280;45528;52.102;5.242;2023-05-02T06:58:24;102106.0;;;16.23;48.07
32452;BME280;45528;52.102;5.242;2023-05-02T07:01:37;102111.0;;;16.23;48.23
32452;BME280;45528;52.102;5.242;2023-05-02T07:03:13;102119.0;;;15.81;49.17
32452;BME280;45528;52.102;5.242;2023-05-02T07:04:49;102120.0;;;15.48;49.54
32452;BME280;45528;52.102;5.242;2023-05-02T07:08:02;102119.0;;;15.59;49.68
32452;BME280;45528;52.102;5.242;2023-05-02T07:09:39;102127.0;;;15.64;50.1
32452;BME280;45528;52.102;5.242;2023-05-02T07:11:15;102124.0;;;15.36;50.33
32452;BME280;45528;52.102;5.242;2023-05-02T07:12:51;102125.0;;;15.59;51.3
32452;BME280;45528;52.102;5.242;2023-05-02T07:16:04;102130.0;;;15.43;51.12
32452;BME280;45528;52.102;5.242;2023-05-02T07:17:41;102132.0;;;15.28;51.49
32452;BME280;45528;52.102;5.242;2023-05-02T07:19:19;102130.0;;;15.55;51.11
32452;BME280;45528;52.102;5.242;2023-05-02T07:22:31;102134.0;;;15.44;51.74
32452;BME280;45528;52.102;5.242;2023-05-02T07:24:07;102133.0;;;15.1;52.37
32452;BME280;45528;52.102;5.242;2023-05-02T07:25:43;102134.0;;;15.35;51.15
32452;BME280;45528;52.102;5.242;2023-05-02T07:28:56;102142.0;;;15.55;50.87
32452;BME280;45528;52.102;5.242;2023-05-02T07:30:32;102142.0;;;15.19;51.23
32452;BME280;45528;52.102;5.242;2023-05-02T07:32:08;102146.0;;;15.23;51.25
32452;BME280;45528;52.102;5.242;2023-05-02T07:33:44;102145.0;;;15.27;51.76
32452;BME280;45528;52.102;5.242;2023-05-02T07:36:57;102147.0;;;15.23;51.37
32452;BME280;45528;52.102;5.242;2023-05-02T07:38:34;102150.0;;;15.08;52.05
32452;BME280;45528;52.102;5.242;2023-05-02T07:40:10;102159.0;;;15.19;51.18
32452;BME280;45528;52.102;5.242;2023-05-02T07:43:22;102159.0;;;15.34;51.26
32452;BME280;45528;52.102;5.242;2023-05-02T07:44:58;102161.0;;;15.47;51.2
32452;BME280;45528;52.102;5.242;2023-05-02T07:46:34;102166.0;;;15.37;50.91
32452;BME280;45528;52.102;5.242;2023-05-02T07:49:50;102165.0;;;15.31;51.15
32452;BME280;45528;52.102;5.242;2023-05-02T07:51:25;102166.0;;;15.71;50.18
32452;BME280;45528;52.102;5.242;2023-05-02T07:53:01;102168.0;;;15.83;50.38
32452;BME280;45528;52.102;5.242;2023-05-02T07:54:37;102168.0;;;15.67;49.45
32452;BME280;45528;52.102;5.242;2023-05-02T07:57:50;102170.0;;;15.77;49.55
32452;BME280;45528;52.102;5.242;2023-05-02T07:59:26;102174.0;;;15.71;49.08
32452;BME280;45528;52.102;5.242;2023-05-02T08:01:02;102184.0;;;15.73;49.25
32452;BME280;45528;52.102;5.242;2023-05-02T08:04:16;102185.0;;;15.97;48.9
32452;BME280;45528;52.102;5.242;2023-05-02T08:05:53;102180.0;;;15.87;47.95
32452;BME280;45528;52.102;5.242;2023-05-02T08:07:30;102178.0;;;15.74;48.44
32452;BME280;45528;52.102;5.242;2023-05-02T08:10:43;102182.0;;;15.54;48.2
32452;BME280;45528;52.102;5.242;2023-05-02T08:12:20;102188.0;;;15.47;49.22
32452;BME280;45528;52.102;5.242;2023-05-02T08:13:55;102184.0;;;15.47;48.48
32452;BME280;45528;52.102;5.242;2023-05-02T08:15:32;102189.0;;;15.72;48.54
32452;BME280;45528;52.102;5.242;2023-05-02T08:18:44;102191.0;;;15.44;48.69
32452;BME280;45528;52.102;5.242;2023-05-02T08:20:20;102191.0;;;15.8;48.35
32452;BME280;45528;52.102;5.242;2023-05-02T08:21:57;102200.0;;;15.77;47.87
32452;BME280;45528;52.102;5.242;2023-05-02T08:25:09;102198.0;;;15.62;47.97
32452;BME280;45528;52.102;5.242;2023-05-02T08:26:45;102198.0;;;15.15;48.19
32452;BME280;45528;52.102;5.242;2023-05-02T08:28:21;102207.0;;;15.04;48.9
32452;BME280;45528;52.102;5.242;2023-05-02T08:31:33;102207.0;;;15.32;48.12
32452;BME280;45528;52.102;5.242;2023-05-02T08:33:10;102211.0;;;15.49;47.92
32452;BME280;45528;52.102;5.242;2023-05-02T08:34:46;102214.0;;;15.62;46.78
32452;BME280;45528;52.102;5.242;2023-05-02T08:37:59;102215.0;;;15.91;47.8
32452;BME280;45528;52.102;5.242;2023-05-02T08:39:35;102221.0;;;16.09;46.62
32452;BME280;45528;52.102;5.242;2023-05-02T08:41:13;102221.0;;;16.25;46.47
32452;BME280;45528;52.102;5.242;2023-05-02T08:42:50;102220.0;;;15.97;45.81
32452;BME280;45528;52.102;5.242;2023-05-02T08:46:04;102226.0;;;15.88;45.48
32452;BME280;45528;52.102;5.242;2023-05-02T08:47:40;102226.0;;;15.88;45.78
32452;BME280;45528;52.102;5.242;2023-05-02T08:49:18;102226.0;;;16.32;45.32
32452;BME280;45528;52.102;5.242;2023-05-02T08:52:34;102232.0;;;16.43;44.75
32452;BME280;45528;52.102;5.242;2023-05-02T08:54:15;102230.0;;;16.57;44.83
32452;BME280;45528;52.102;5.242;2023-05-02T08:55:52;102227.0;;;16.3;44.58
32452;BME280;45528;52.102;5.242;2023-05-02T08:57:29;102233.0;;;16.65;44.56
32452;BME280;45528;52.102;5.242;2023-05-02T09:00:41;102233.0;;;16.23;43.61
32452;BME280;45528;52.102;5.242;2023-05-02T09:02:34;102236.0;;;15.89;44.43
32452;BME280;45528;52.102;5.242;2023-05-02T09:04:30;102241.0;;;16.41;43.74
32452;BME280;45528;52.102;5.242;2023-05-02T09:06:10;102242.0;;;16.36;43.2
32452;BME280;45528;52.102;5.242;2023-05-02T09:09:26;102247.0;;;16.7;43.74
32452;BME280;45528;52.102;5.242;2023-05-02T09:11:03;102247.0;;;16.72;42.27
32452;BME280;45528;52.102;5.242;2023-05-02T09:12:40;102256.0;;;16.73;41.24
32452;BME280;45528;52.102;5.242;2023-05-02T09:14:16;102249.0;;;16.79;42.25
32452;BME280;45528;52.102;5.242;2023-05-02T09:17:38;102247.0;;;16.91;40.14
32452;BME280;45528;52.102;5.242;2023-05-02T09:19:22;102248.0;;;16.96;40.35
32452;BME280;45528;52.102;5.242;2023-05-02T09:21:03;102249.0;;;17.41;39.74
32452;BME280;45528;52.102;5.242;2023-05-02T09:22:47;102255.0;;;17.43;39.03
32452;BME280;45528;52.102;5.242;2023-05-02T09:26:00;102251.0;;;17.16;39.14
32452;BME280;45528;52.102;5.242;2023-05-02T09:27:54;102251.0;;;17.3;39.14
32452;BME280;45528;52.102;5.242;2023-05-02T09:29:31;102256.0;;;17.21;39.64
32452;BME280;45528;52.102;5.242;2023-05-02T09:31:10;102257.0;;;17.5;37.97
32452;BME280;45528;52.102;5.242;2023-05-02T09:34:25;102264.0;;;17.41;38.06
32452;BME280;45528;52.102;5.242;2023-05-02T09:36:02;102272.0;;;17.89;38.87
32452;BME280;45528;52.102;5.242;2023-05-02T09:37:38;102270.0;;;17.54;38.11
32452;BME280;45528;52.102;5.242;2023-05-02T09:39:17;102271.0;;;17.14;37.44
32452;BME280;45528;52.102;5.242;2023-05-02T09:42:32;102276.0;;;17.11;39.04
32452;BME280;45528;52.102;5.242;2023-05-02T09:44:09;102273.0;;;17.5;38.43
32452;BME280;45528;52.102;5.242;2023-05-02T09:45:55;102282.0;;;17.47;37.58
32452;BME280;45528;52.102;5.242;2023-05-02T09:49:08;102280.0;;;17.07;37.39
32452;BME280;45528;52.102;5.242;2023-05-02T09:50:44;102283.0;;;17.41;37.64
32452;BME280;45528;52.102;5.242;2023-05-02T09:52:20;102282.0;;;17.7;37.35
32452;BME280;45528;52.102;5.242;2023-05-02T09:53:56;102280.0;;;17.59;37.43
32452;BME280;45528;52.102;5.242;2023-05-02T09:57:09;102280.0;;;17.75;36.71
32452;BME280;45528;52.102;5.242;2023-05-02T09:58:45;102281.0;;;18.14;37.25
32452;BME280;45528;52.102;5.242;2023-05-02T10:00:21;102283.0;;;18.45;36.35
32452;BME280;45528;52.102;5.242;2023-05-02T10:03:36;102280.0;;;18.27;35.44
32452;BME280;45528;52.102;5.242;2023-05-02T10:05:16;102280.0;;;18.21;36.78
32452;BME280;45528;52.102;5.242;2023-05-02T10:06:54;102282.0;;;17.78;34.89
32452;BME280;45528;52.102;5.242;2023-05-02T10:10:10;102280.0;;;17.79;35.1
32452;BME280;45528;52.102;5.242;2023-05-02T10:11:51;102286.0;;;17.91;35.74
32452;BME280;45528;52.102;5.242;2023-05-02T10:13:29;102293.0;;;18.18;35.15
32452;BME280;45528;52.102;5.242;2023-05-02T10:15:09;102292.0;;;17.93;34.42
32452;BME280;45528;52.102;5.242;2023-05-02T10:18:39;102288.0;;;18.25;34.82
32452;BME280;45528;52.102;5.242;2023-05-02T10:20:21;102292.0;;;18.3;33.93
32452;BME280;45528;52.102;5.242;2023-05-02T10:22:01;102293.0;;;18.84;35.87
32452;BME280;45528;52.102;5.242;2023-05-02T10:23:41;102297.0;;;18.61;35.1
32452;BME280;45528;52.102;5.242;2023-05-02T10:25:18;102307.0;;;18.77;34.28
32452;BME280;45528;52.102;5.242;2023-05-02T10:28:31;102295.0;;;18.7;36.0
32452;BME280;45528;52.102;5.242;2023-05-02T10:30:09;102296.0;;;18.86;34.21
32452;BME280;45528;52.102;5.242;2023-05-02T10:31:48;102295.0;;;18.59;34.57
32452;BME280;45528;52.102;5.242;2023-05-02T10:35:03;102299.0;;;18.53;35.65
32452;BME280;45528;52.102;5.242;2023-05-02T10:36:40;102302.0;;;18.55;34.5
32452;BME280;45528;52.102;5.242;2023-05-02T10:38:19;102308.0;;;18.09;34.24
32452;BME280;45528;52.102;5.242;2023-05-02T10:39:55;102312.0;;;18.36;33.31
32452;BME280;45528;52.102;5.242;2023-05-02T10:43:13;102306.0;;;18.55;32.96
32452;BME280;45528;52.102;5.242;2023-05-02T10:44:50;102305.0;;;18.59;34.72
32452;BME280;45528;52.102;5.242;2023-05-02T10:46:30;102300.0;;;18.7;33.19
32452;BME280;45528;52.102;5.242;2023-05-02T10:49:55;102306.0;;;18.86;34.97
32452;BME280;45528;52.102;5.242;2023-05-02T10:51:32;102306.0;;;18.46;33.83
32452;BME280;45528;52.102;5.242;2023-05-02T10:53:21;102312.0;;;18.56;33.31
32452;BME280;45528;52.102;5.242;2023-05-02T10:55:19;102308.0;;;18.31;33.54
32452;BME280;45528;52.102;5.242;2023-05-02T10:57:04;102315.0;;;18.11;33.21
32452;BME280;45528;52.102;5.242;2023-05-02T11:00:20;102317.0;;;18.28;33.64
32452;BME280;45528;52.102;5.242;2023-05-02T11:01:57;102314.0;;;17.98;34.42
32452;BME280;45528;52.102;5.242;2023-05-02T11:04:07;102314.0;;;18.43;34.17
32452;BME280;45528;52.102;5.242;2023-05-02T11:06:17;102317.0;;;18.87;34.4
32452;BME280;45528;52.102;5.242;2023-05-02T11:08:29;102313.0;;;19.25;32.72